sensor_id;sensor_type;location;lat;lon;timestamp;P1;durP1;ratioP1;P2;durP2;ratioP2
45382;SDS011;42455;51.660;5.824;2024-03-23T00:56:20;7.0;;;4.0;;
45382;SDS011;42455;51.660;5.824;2024-03-23T01:01:26;8.0;;;4.0;;
45382;SDS011;42455;51.660;5.824;2024-03-23T01:06:33;9.0;;;4.0;;
45382;SDS011;42455;51.660;5.824;2024-03-23T01:11:39;10.5;;;4.0;;
45382;SDS011;42455;51.660;5.824;2024-03-23T01:16:45;10.5;;;4.0;;
45382;SDS011;42455;51.660;5.824;2024-03-23T01:21:51;6.0;;;4.0;;
45382;SDS011;42455;51.660;5.824;2024-03-23T01:26:57;7.0;;;4.0;;
45382;SDS011;42455;51.660;5.824;2024-03-23T01:32:04;9.0;;;4.0;;
45382;SDS011;42455;51.660;5.824;2024-03-23T01:37:09;9.0;;;4.0;;
45382;SDS011;42455;51.660;5.824;2024-03-23T01:42:15;10.0;;;4.0;;
45382;SDS011;42455;51.660;5.824;2024-03-23T01:47:21;7.0;;;4.0;;
45382;SDS011;42455;51.660;5.824;2024-03-23T01:52:27;9.0;;;5.0;;
45382;SDS011;42455;51.660;5.824;2024-03-23T01:57:34;10.0;;;5.0;;
45382;SDS011;42455;51.660;5.824;2024-03-23T02:02:42;12.0;;;6.0;;
45382;SDS011;42455;51.660;5.824;2024-03-23T02:07:46;10.0;;;6.0;;
45382;SDS011;42455;51.660;5.824;2024-03-23T02:12:52;11.0;;;6.0;;
45382;SDS011;42455;51.660;5.824;2024-03-23T02:17:58;11.0;;;5.0;;
45382;SDS011;42455;51.660;5.824;2024-03-23T02:23:05;9.0;;;5.0;;
45382;SDS011;42455;51.660;5.824;2024-03-23T02:28:11;10.0;;;5.0;;
45382;SDS011;42455;51.660;5.824;2024-03-23T02:33:17;10.0;;;5.0;;
45382;SDS011;42455;51.660;5.824;2024-03-23T02:38:23;10.0;;;4.0;;
45382;SDS011;42455;51.660;5.824;2024-03-23T02:43:30;11.0;;;4.0;;
45382;SDS011;42455;51.660;5.824;2024-03-23T02:48:36;9.0;;;4.0;;
45382;SDS011;42455;51.660;5.824;2024-03-23T02:53:42;9.0;;;4.0;;
45382;SDS011;42455;51.660;5.824;2024-03-23T02:58:48;9.5;;;5.0;;
45382;SDS011;42455;51.660;5.824;2024-03-23T03:03:54;10.0;;;5.0;;
45382;SDS011;42455;51.660;5.824;2024-03-23T03:09:01;10.0;;;5.0;;
45382;SDS011;42455;51.660;5.824;2024-03-23T03:14:07;10.0;;;5.0;;
45382;SDS011;42455;51.660;5.824;2024-03-23T03:19:13;10.0;;;5.0;;
45382;SDS011;42455;51.660;5.824;2024-03-23T03:24:19;10.0;;;5.0;;
45382;SDS011;42455;51.660;5.824;2024-03-23T03:29:25;10.0;;;5.0;;
45382;SDS011;42455;51.660;5.824;2024-03-23T03:34:32;12.0;;;6.0;;
45382;SDS011;42455;51.660;5.824;2024-03-23T03:39:38;12.0;;;6.0;;
45382;SDS011;42455;51.660;5.824;2024-03-23T03:44:44;11.0;;;6.0;;
45382;SDS011;42455;51.660;5.824;2024-03-23T03:49:50;10.0;;;6.0;;
45382;SDS011;42455;51.660;5.824;2024-03-23T03:54:59;10.0;;;6.0;;
45382;SDS011;42455;51.660;5.824;2024-03-23T04:00:03;11.0;;;5.0;;
45382;SDS011;42455;51.660;5.824;2024-03-23T04:05:09;11.0;;;5.0;;
45382;SDS011;42455;51.660;5.824;2024-03-23T04:10:15;13.0;;;6.0;;
45382;SDS011;42455;51.660;5.824;2024-03-23T04:15:21;11.0;;;5.0;;
45382;SDS011;42455;51.660;5.824;2024-03-23T04:20:27;10.0;;;5.0;;
45382;SDS011;42455;51.660;5.824;2024-03-23T04:25:34;8.0;;;4.0;;
45382;SDS011;42455;51.660;5.824;2024-03-23T04:30:40;15.0;;;6.0;;
45382;SDS011;42455;51.660;5.824;2024-03-23T04:35:48;11.0;;;5.0;;
45382;SDS011;42455;51.660;5.824;2024-03-23T04:40:54;11.0;;;4.0;;
45382;SDS011;42455;51.660;5.824;2024-03-23T04:45:58;8.0;;;5.0;;
45382;SDS011;42455;51.660;5.824;2024-03-23T04:51:05;10.0;;;4.0;;
45382;SDS011;42455;51.660;5.824;2024-03-23T04:56:11;11.0;;;4.0;;
45382;SDS011;42455;51.660;5.824;2024-03-23T05:01:17;8.0;;;4.0;;
45382;SDS011;42455;51.660;5.824;2024-03-23T05:06:23;9.0;;;4.0;;
45382;SDS011;42455;51.660;5.824;2024-03-23T05:11:30;9.0;;;4.0;;
45382;SDS011;42455;51.660;5.824;2024-03-23T05:16:36;10.0;;;4.0;;
45382;SDS011;42455;51.660;5.824;2024-03-23T05:21:42;9.0;;;4.0;;
45382;SDS011;42455;51.660;5.824;2024-03-23T05:26:48;10.0;;;4.0;;
45382;SDS011;42455;51.660;5.824;2024-03-23T05:31:54;9.0;;;4.0;;
45382;SDS011;42455;51.660;5.824;2024-03-23T05:37:01;11.0;;;4.0;;
45382;SDS011;42455;51.660;5.824;2024-03-23T05:42:07;9.0;;;4.0;;
45382;SDS011;42455;51.660;5.824;2024-03-23T05:47:13;9.0;;;4.0;;
45382;SDS011;42455;51.660;5.824;2024-03-23T05:52:19;10.0;;;4.0;;
45382;SDS011;42455;51.660;5.824;2024-03-23T05:57:25;8.0;;;5.0;;
45382;SDS011;42455;51.660;5.824;2024-03-23T06:02:32;10.0;;;5.0;;
45382;SDS011;42455;51.660;5.824;2024-03-23T06:07:38;12.5;;;5.0;;
45382;SDS011;42455;51.660;5.824;2024-03-23T06:12:45;10.5;;;5.0;;
45382;SDS011;42455;51.660;5.824;2024-03-23T06:17:50;13.0;;;6.0;;
45382;SDS011;42455;51.660;5.824;2024-03-23T06:22:56;13.0;;;6.0;;
45382;SDS011;42455;51.660;5.824;2024-03-23T06:28:03;15.0;;;6.0;;
45382;SDS011;42455;51.660;5.824;2024-03-23T06:33:09;11.0;;;7.0;;
45382;SDS011;42455;51.660;5.824;2024-03-23T06:38:15;11.0;;;6.5;;
45382;SDS011;42455;51.660;5.824;2024-03-23T06:43:21;12.5;;;7.0;;
45382;SDS011;42455;51.660;5.824;2024-03-23T06:48:27;12.0;;;7.0;;
45382;SDS011;42455;51.660;5.824;2024-03-23T06:53:34;11.5;;;6.0;;
45382;SDS011;42455;51.660;5.824;2024-03-23T06:58:40;11.5;;;7.0;;
45382;SDS011;42455;51.660;5.824;2024-03-23T07:03:46;10.0;;;6.5;;
45382;SDS011;42455;51.660;5.824;2024-03-23T07:08:52;10.0;;;6.0;;
45382;SDS011;42455;51.660;5.824;2024-03-23T07:13:58;11.0;;;5.5;;
45382;SDS011;42455;51.660;5.824;2024-03-23T07:19:04;8.0;;;5.0;;
45382;SDS011;42455;51.660;5.824;2024-03-23T07:24:10;9.0;;;4.0;;
45382;SDS011;42455;51.660;5.824;2024-03-23T07:29:16;13.0;;;5.0;;
45382;SDS011;42455;51.660;5.824;2024-03-23T07:34:22;12.0;;;6.0;;
45382;SDS011;42455;51.660;5.824;2024-03-23T07:39:29;11.0;;;5.0;;
45382;SDS011;42455;51.660;5.824;2024-03-23T07:44:35;10.0;;;4.0;;
45382;SDS011;42455;51.660;5.824;2024-03-23T07:49:41;7.0;;;3.0;;
45382;SDS011;42455;51.660;5.824;2024-03-23T07:54:47;7.0;;;2.0;;
45382;SDS011;42455;51.660;5.824;2024-03-23T07:59:53;6.0;;;2.0;;
45382;SDS011;42455;51.660;5.824;2024-03-23T08:05:00;7.0;;;3.0;;
45382;SDS011;42455;51.660;5.824;2024-03-23T08:10:06;7.0;;;3.0;;
45382;SDS011;42455;51.660;5.824;2024-03-23T08:15:12;7.0;;;3.0;;
45382;SDS011;42455;51.660;5.824;2024-03-23T08:20:18;7.0;;;3.0;;
45382;SDS011;42455;51.660;5.824;2024-03-23T08:25:24;8.5;;;3.0;;
45382;SDS011;42455;51.660;5.824;2024-03-23T08:30:31;5.5;;;3.0;;
45382;SDS011;42455;51.660;5.824;2024-03-23T08:35:38;5.0;;;3.0;;
45382;SDS011;42455;51.660;5.824;2024-03-23T08:40:43;8.0;;;3.0;;
45382;SDS011;42455;51.660;5.824;2024-03-23T08:45:49;7.0;;;3.0;;
45382;SDS011;42455;51.660;5.824;2024-03-23T08:50:59;8.0;;;3.0;;
45382;SDS011;42455;51.660;5.824;2024-03-23T08:56:02;10.0;;;2.0;;
45382;SDS011;42455;51.660;5.824;2024-03-23T09:01:08;7.0;;;2.0;;
45382;SDS011;42455;51.660;5.824;2024-03-23T09:06:14;5.0;;;2.0;;
45382;SDS011;42455;51.660;5.824;2024-03-23T09:11:20;4.0;;;1.0;;
45382;SDS011;42455;51.660;5.824;2024-03-23T09:16:27;4.0;;;1.0;;
45382;SDS011;42455;51.660;5.824;2024-03-23T09:21:33;6.0;;;2.0;;
45382;SDS011;42455;51.660;5.824;2024-03-23T09:26:39;7.0;;;2.0;;
45382;SDS011;42455;51.660;5.824;2024-03-23T09:31:45;3.0;;;1.0;;
45382;SDS011;42455;51.660;5.824;2024-03-23T09:36:51;4.0;;;1.0;;
45382;SDS011;42455;51.660;5.824;2024-03-23T09:41:57;6.0;;;1.0;;
45382;SDS011;42455;51.660;5.824;2024-03-23T09:47:04;5.0;;;1.0;;
45382;SDS011;42455;51.660;5.824;2024-03-23T09:52:10;5.0;;;2.0;;
45382;SDS011;42455;51.660;5.824;2024-03-23T09:57:16;6.0;;;2.0;;
45382;SDS011;42455;51.660;5.824;2024-03-23T10:02:23;7.0;;;2.0;;
45382;SDS011;42455;51.660;5.824;2024-03-23T10:07:29;6.0;;;2.0;;
45382;SDS011;42455;51.660;5.824;2024-03-23T10:12:35;8.0;;;2.0;;
45382;SDS011;42455;51.660;5.824;2024-03-23T10:17:41;8.0;;;2.0;;
45382;SDS011;42455;51.660;5.824;2024-03-23T10:22:47;7.0;;;2.0;;
45382;SDS011;42455;51.660;5.824;2024-03-23T10:27:58;6.0;;;2.0;;
45382;SDS011;42455;51.660;5.824;2024-03-23T10:33:06;7.0;;;2.0;;
45382;SDS011;42455;51.660;5.824;2024-03-23T10:38:06;8.0;;;2.0;;
45382;SDS011;42455;51.660;5.824;2024-03-23T10:43:12;7.0;;;2.0;;
45382;SDS011;42455;51.660;5.824;2024-03-23T10:48:18;5.0;;;2.0;;
45382;SDS011;42455;51.660;5.824;2024-03-23T10:53:25;6.0;;;1.0;;
45382;SDS011;42455;51.660;5.824;2024-03-23T10:58:31;7.0;;;2.0;;
45382;SDS011;42455;51.660;5.824;2024-03-23T11:03:37;5.0;;;1.0;;
45382;SDS011;42455;51.660;5.824;2024-03-23T11:08:43;3.0;;;1.0;;
45382;SDS011;42455;51.660;5.824;2024-03-23T11:13:50;4.0;;;1.0;;
45382;SDS011;42455;51.660;5.824;2024-03-23T11:19:33;5.0;;;2.0;;
45382;SDS011;42455;51.660;5.824;2024-03-23T11:24:12;6.5;;;2.0;;
45382;SDS011;42455;51.660;5.824;2024-03-23T11:29:08;4.5;;;1.0;;
45382;SDS011;42455;51.660;5.824;2024-03-23T11:34:15;5.0;;;2.0;;
45382;SDS011;42455;51.660;5.824;2024-03-23T11:39:20;3.0;;;1.0;;
45382;SDS011;42455;51.660;5.824;2024-03-23T11:44:27;3.0;;;1.0;;
45382;SDS011;42455;51.660;5.824;2024-03-23T11:49:33;2.0;;;1.0;;
45382;SDS011;42455;51.660;5.824;2024-03-23T11:54:39;3.0;;;1.0;;
45382;SDS011;42455;51.660;5.824;2024-03-23T11:59:45;3.0;;;1.0;;
45382;SDS011;42455;51.660;5.824;2024-03-23T12:04:51;4.0;;;1.0;;
45382;SDS011;42455;51.660;5.824;2024-03-23T12:10:05;4.0;;;1.0;;
45382;SDS011;42455;51.660;5.824;2024-03-23T12:15:04;2.0;;;1.0;;
45382;SDS011;42455;51.660;5.824;2024-03-23T12:20:10;3.0;;;0.0;;
45382;SDS011;42455;51.660;5.824;2024-03-23T12:25:16;4.0;;;1.0;;
45382;SDS011;42455;51.660;5.824;2024-03-23T12:30:22;3.0;;;1.0;;
45382;SDS011;42455;51.660;5.824;2024-03-23T12:35:29;4.0;;;1.0;;
45382;SDS011;42455;51.660;5.824;2024-03-23T12:40:34;3.0;;;1.0;;
45382;SDS011;42455;51.660;5.824;2024-03-23T12:50:46;3.0;;;1.0;;
45382;SDS011;42455;51.660;5.824;2024-03-23T12:55:52;4.0;;;1.0;;
45382;SDS011;42455;51.660;5.824;2024-03-23T13:00:59;4.0;;;1.0;;
45382;SDS011;42455;51.660;5.824;2024-03-23T13:06:05;3.0;;;1.0;;
45382;SDS011;42455;51.660;5.824;2024-03-23T13:11:10;5.0;;;1.0;;
45382;SDS011;42455;51.660;5.824;2024-03-23T13:16:16;5.0;;;2.0;;
45382;SDS011;42455;51.660;5.824;2024-03-23T13:21:23;5.0;;;2.0;;
45382;SDS011;42455;51.660;5.824;2024-03-23T13:26:29;6.0;;;2.0;;
45382;SDS011;42455;51.660;5.824;2024-03-23T13:31:35;4.0;;;1.0;;
45382;SDS011;42455;51.660;5.824;2024-03-23T13:36:41;2.0;;;1.0;;
45382;SDS011;42455;51.660;5.824;2024-03-23T13:41:47;4.5;;;2.0;;
45382;SDS011;42455;51.660;5.824;2024-03-23T13:46:54;3.0;;;1.0;;
45382;SDS011;42455;51.660;5.824;2024-03-23T13:52:00;5.0;;;1.0;;
45382;SDS011;42455;51.660;5.824;2024-03-23T13:57:06;4.0;;;1.0;;
45382;SDS011;42455;51.660;5.824;2024-03-23T14:02:12;4.0;;;1.0;;
45382;SDS011;42455;51.660;5.824;2024-03-23T14:07:18;4.0;;;1.0;;
45382;SDS011;42455;51.660;5.824;2024-03-23T14:12:25;5.0;;;1.0;;
45382;SDS011;42455;51.660;5.824;2024-03-23T14:17:31;6.0;;;2.0;;
45382;SDS011;42455;51.660;5.824;2024-03-23T14:22:37;4.0;;;1.0;;
45382;SDS011;42455;51.660;5.824;2024-03-23T14:27:43;5.0;;;1.0;;
45382;SDS011;42455;51.660;5.824;2024-03-23T14:32:49;6.0;;;1.0;;
45382;SDS011;42455;51.660;5.824;2024-03-23T14:37:56;6.0;;;1.0;;
45382;SDS011;42455;51.660;5.824;2024-03-23T14:43:02;5.0;;;1.0;;
45382;SDS011;42455;51.660;5.824;2024-03-23T14:48:08;6.0;;;2.0;;
45382;SDS011;42455;51.660;5.824;2024-03-23T14:53:14;6.0;;;1.0;;
45382;SDS011;42455;51.660;5.824;2024-03-23T14:58:20;7.0;;;2.0;;
45382;SDS011;42455;51.660;5.824;2024-03-23T15:03:27;5.0;;;2.0;;
45382;SDS011;42455;51.660;5.824;2024-03-23T15:08:33;5.0;;;2.0;;
45382;SDS011;42455;51.660;5.824;2024-03-23T15:13:39;4.0;;;1.0;;
45382;SDS011;42455;51.660;5.824;2024-03-23T15:18:45;5.0;;;1.0;;
45382;SDS011;42455;51.660;5.824;2024-03-23T15:23:52;4.0;;;1.0;;
45382;SDS011;42455;51.660;5.824;2024-03-23T15:28:58;3.0;;;1.0;;
45382;SDS011;42455;51.660;5.824;2024-03-23T15:34:04;3.0;;;1.0;;
45382;SDS011;42455;51.660;5.824;2024-03-23T15:39:10;2.0;;;1.0;;
45382;SDS011;42455;51.660;5.824;2024-03-23T15:44:16;1.0;;;0.0;;
45382;SDS011;42455;51.660;5.824;2024-03-23T15:49:23;3.0;;;1.0;;
45382;SDS011;42455;51.660;5.824;2024-03-23T15:54:29;3.0;;;1.0;;
45382;SDS011;42455;51.660;5.824;2024-03-23T15:59:35;3.0;;;1.0;;
45382;SDS011;42455;51.660;5.824;2024-03-23T16:04:41;3.0;;;1.0;;
45382;SDS011;42455;51.660;5.824;2024-03-23T16:09:47;3.0;;;1.0;;
45382;SDS011;42455;51.660;5.824;2024-03-23T16:14:54;2.5;;;1.0;;
45382;SDS011;42455;51.660;5.824;2024-03-23T16:20:00;2.0;;;1.0;;
45382;SDS011;42455;51.660;5.824;2024-03-23T16:25:06;1.0;;;0.0;;
45382;SDS011;42455;51.660;5.824;2024-03-23T16:30:13;1.0;;;0.0;;
45382;SDS011;42455;51.660;5.824;2024-03-23T16:35:18;2.0;;;0.5;;
45382;SDS011;42455;51.660;5.824;2024-03-23T16:40:25;2.0;;;0.0;;
45382;SDS011;42455;51.660;5.824;2024-03-23T16:45:31;1.0;;;0.0;;
45382;SDS011;42455;51.660;5.824;2024-03-23T16:50:37;2.0;;;0.0;;
45382;SDS011;42455;51.660;5.824;2024-03-23T16:55:43;2.0;;;0.0;;
45382;SDS011;42455;51.660;5.824;2024-03-23T17:00:49;1.0;;;0.0;;
45382;SDS011;42455;51.660;5.824;2024-03-23T17:05:56;1.5;;;0.0;;
45382;SDS011;42455;51.660;5.824;2024-03-23T17:11:02;2.0;;;0.0;;
45382;SDS011;42455;51.660;5.824;2024-03-23T17:16:08;1.0;;;0.0;;
45382;SDS011;42455;51.660;5.824;2024-03-23T17:21:14;2.0;;;0.0;;
45382;SDS011;42455;51.660;5.824;2024-03-23T17:26:21;1.0;;;0.0;;
45382;SDS011;42455;51.660;5.824;2024-03-23T17:31:27;1.0;;;0.0;;
45382;SDS011;42455;51.660;5.824;2024-03-23T17:36:33;1.0;;;0.0;;
45382;SDS011;42455;51.660;5.824;2024-03-23T17:41:39;1.0;;;1.0;;
45382;SDS011;42455;51.660;5.824;2024-03-23T17:46:45;1.5;;;1.0;;
45382;SDS011;42455;51.660;5.824;2024-03-23T17:51:52;1.0;;;1.0;;
45382;SDS011;42455;51.660;5.824;2024-03-23T17:56:58;1.0;;;1.0;;
45382;SDS011;42455;51.660;5.824;2024-03-23T18:07:10;3.0;;;1.0;;
45382;SDS011;42455;51.660;5.824;2024-03-23T18:12:16;2.0;;;1.0;;
45382;SDS011;42455;51.660;5.824;2024-03-23T18:17:23;2.0;;;1.0;;
45382;SDS011;42455;51.660;5.824;2024-03-23T18:22:29;4.0;;;2.0;;
45382;SDS011;42455;51.660;5.824;2024-03-23T18:27:35;2.0;;;1.0;;
45382;SDS011;42455;51.660;5.824;2024-03-23T18:32:41;3.0;;;1.0;;
45382;SDS011;42455;51.660;5.824;2024-03-23T18:37:47;4.0;;;2.0;;
45382;SDS011;42455;51.660;5.824;2024-03-23T18:42:53;5.5;;;3.0;;
45382;SDS011;42455;51.660;5.824;2024-03-23T18:47:59;5.0;;;2.0;;
45382;SDS011;42455;51.660;5.824;2024-03-23T18:53:05;4.0;;;2.0;;
45382;SDS011;42455;51.660;5.824;2024-03-23T18:58:11;5.0;;;2.0;;
45382;SDS011;42455;51.660;5.824;2024-03-23T19:03:17;4.0;;;2.0;;
45382;SDS011;42455;51.660;5.824;2024-03-23T19:08:24;4.0;;;2.0;;
45382;SDS011;42455;51.660;5.824;2024-03-23T19:13:30;4.0;;;2.0;;
45382;SDS011;42455;51.660;5.824;2024-03-23T19:18:36;3.0;;;1.0;;
45382;SDS011;42455;51.660;5.824;2024-03-23T19:23:42;4.0;;;2.0;;
45382;SDS011;42455;51.660;5.824;2024-03-23T19:28:49;4.0;;;2.0;;
45382;SDS011;42455;51.660;5.824;2024-03-23T19:33:55;3.0;;;2.0;;
45382;SDS011;42455;51.660;5.824;2024-03-23T19:39:01;3.0;;;2.0;;
45382;SDS011;42455;51.660;5.824;2024-03-23T19:44:07;4.0;;;2.0;;
45382;SDS011;42455;51.660;5.824;2024-03-23T19:49:13;3.0;;;2.0;;
45382;SDS011;42455;51.660;5.824;2024-03-23T19:54:20;4.0;;;2.0;;
45382;SDS011;42455;51.660;5.824;2024-03-23T19:59:26;5.0;;;2.0;;
45382;SDS011;42455;51.660;5.824;2024-03-23T20:04:32;5.0;;;2.0;;
45382;SDS011;42455;51.660;5.824;2024-03-23T20:09:38;7.0;;;3.0;;
45382;SDS011;42455;51.660;5.824;2024-03-23T20:14:44;5.0;;;3.0;;
45382;SDS011;42455;51.660;5.824;2024-03-23T20:19:51;6.0;;;3.0;;
45382;SDS011;42455;51.660;5.824;2024-03-23T20:24:57;5.0;;;3.0;;
45382;SDS011;42455;51.660;5.824;2024-03-23T20:30:03;5.0;;;3.0;;
45382;SDS011;42455;51.660;5.824;2024-03-23T20:35:09;5.0;;;3.5;;
45382;SDS011;42455;51.660;5.824;2024-03-23T20:40:15;6.0;;;3.0;;
45382;SDS011;42455;51.660;5.824;2024-03-23T20:45:22;6.0;;;3.0;;
45382;SDS011;42455;51.660;5.824;2024-03-23T20:50:28;6.0;;;3.0;;
45382;SDS011;42455;51.660;5.824;2024-03-23T20:55:34;4.0;;;3.0;;
45382;SDS011;42455;51.660;5.824;2024-03-23T21:00:40;6.0;;;3.0;;
45382;SDS011;42455;51.660;5.824;2024-03-23T21:05:48;6.0;;;4.0;;
45382;SDS011;42455;51.660;5.824;2024-03-23T21:10:53;5.0;;;3.0;;
45382;SDS011;42455;51.660;5.824;2024-03-23T21:15:59;5.0;;;3.0;;
45382;SDS011;42455;51.660;5.824;2024-03-23T21:21:05;6.0;;;4.0;;
45382;SDS011;42455;51.660;5.824;2024-03-23T21:26:11;5.0;;;4.0;;
45382;SDS011;42455;51.660;5.824;2024-03-23T21:31:18;5.0;;;4.0;;
45382;SDS011;42455;51.660;5.824;2024-03-23T21:36:24;5.0;;;4.0;;
45382;SDS011;42455;51.660;5.824;2024-03-23T21:41:30;5.0;;;4.0;;
45382;SDS011;42455;51.660;5.824;2024-03-23T21:46:36;6.0;;;4.0;;
45382;SDS011;42455;51.660;5.824;2024-03-23T21:51:42;5.0;;;3.0;;
45382;SDS011;42455;51.660;5.824;2024-03-23T21:56:49;4.0;;;3.0;;
45382;SDS011;42455;51.660;5.824;2024-03-23T22:01:55;5.0;;;3.0;;
45382;SDS011;42455;51.660;5.824;2024-03-23T22:07:01;5.0;;;3.0;;
45382;SDS011;42455;51.660;5.824;2024-03-23T22:12:07;6.0;;;3.0;;
45382;SDS011;42455;51.660;5.824;2024-03-23T22:17:13;6.0;;;2.0;;
45382;SDS011;42455;51.660;5.824;2024-03-23T22:22:20;4.0;;;3.0;;
45382;SDS011;42455;51.660;5.824;2024-03-23T22:27:26;4.0;;;2.0;;
45382;SDS011;42455;51.660;5.824;2024-03-23T22:32:32;3.5;;;2.0;;
45382;SDS011;42455;51.660;5.824;2024-03-23T22:37:39;4.5;;;2.0;;
45382;SDS011;42455;51.660;5.824;2024-03-23T22:42:44;4.0;;;2.0;;
45382;SDS011;42455;51.660;5.824;2024-03-23T22:47:51;3.0;;;2.0;;
45382;SDS011;42455;51.660;5.824;2024-03-23T22:52:57;4.0;;;2.0;;
45382;SDS011;42455;51.660;5.824;2024-03-23T22:58:03;4.0;;;2.0;;
45382;SDS011;42455;51.660;5.824;2024-03-23T23:03:10;4.5;;;2.0;;
45382;SDS011;42455;51.660;5.824;2024-03-23T23:08:15;5.0;;;3.0;;
45382;SDS011;42455;51.660;5.824;2024-03-23T23:13:22;4.0;;;3.0;;
45382;SDS011;42455;51.660;5.824;2024-03-23T23:18:28;3.5;;;3.0;;
45382;SDS011;42455;51.660;5.824;2024-03-23T23:23:34;4.0;;;3.0;;
45382;SDS011;42455;51.660;5.824;2024-03-23T23:28:40;6.0;;;3.0;;
45382;SDS011;42455;51.660;5.824;2024-03-23T23:33:46;4.0;;;3.0;;
45382;SDS011;42455;51.660;5.824;2024-03-23T23:38:53;4.5;;;3.0;;
45382;SDS011;42455;51.660;5.824;2024-03-23T23:43:59;5.0;;;3.0;;
45382;SDS011;42455;51.660;5.824;2024-03-23T23:49:05;7.0;;;3.0;;
45382;SDS011;42455;51.660;5.824;2024-03-23T23:54:11;7.0;;;4.0;;
45382;SDS011;42455;51.660;5.824;2024-03-23T23:59:18;5.5;;;4.0;;
